Time;durP1;ratioP1;P1;durP2;ratioP2;P2;SDS_P1;SDS_P2;PMS_P1;PMS_P2;Temp;Humidity;BMP_temperature;BMP_pressure;BME280_temperature;BME280_humidity;BME280_pressure;Samples;Min_cycle;Max_cycle;Signal;HPM_P1;HPM_P2
2021/01/21 00:00:54;;;;;;;50.47;22.83;;;;;;;-6.57;88.89;100145.61;1753242;81;21164;-67
2021/01/21 00:03:22;;;;;;;46.17;27.80;;;;;;;-6.54;88.80;100140.11;1751347;81;21128;-65
2021/01/21 00:05:49;;;;;;;46.37;24.20;;;;;;;-6.58;88.94;100138.23;1749524;81;21467;-65
2021/01/21 00:08:18;;;;;;;24.80;16.07;;;;;;;-6.56;89.13;100132.86;1753793;81;21210;-67
2021/01/21 00:10:45;;;;;;;42.83;22.87;;;;;;;-6.56;89.28;100131.06;1753520;81;21432;-68
2021/01/21 00:13:12;;;;;;;63.10;27.23;;;;;;;-6.58;89.45;100124.33;1747924;81;21205;-66
2021/01/21 00:15:40;;;;;;;49.93;26.63;;;;;;;-6.58;89.55;100121.71;1742408;81;21612;-65
2021/01/21 00:18:10;;;;;;;53.47;24.37;;;;;;;-6.57;89.73;100117.67;1720447;83;21900;-64
2021/01/21 00:20:38;;;;;;;45.27;19.83;;;;;;;-6.50;89.68;100107.02;1707301;84;21160;-64
2021/01/21 00:23:06;;;;;;;51.40;26.63;;;;;;;-6.44;89.64;100109.59;1707285;84;21275;-67
2021/01/21 00:25:35;;;;;;;45.47;19.73;;;;;;;-6.41;89.56;100111.93;1707413;84;21645;-64
2021/01/21 00:28:03;;;;;;;48.17;26.80;;;;;;;-6.36;89.51;100117.60;1683341;84;21028;-65
2021/01/21 00:30:31;;;;;;;52.57;29.40;;;;;;;-6.30;89.40;100132.31;1707197;84;21174;-63
2021/01/21 00:32:59;;;;;;;41.60;21.13;;;;;;;-6.23;89.27;100119.50;1733727;82;21614;-63
2021/01/21 00:35:26;;;;;;;44.03;24.90;;;;;;;-6.25;89.02;100114.91;1738381;82;21211;-64
2021/01/21 00:37:55;;;;;;;35.70;17.97;;;;;;;-6.24;88.96;100114.78;1736628;82;21635;-62
2021/01/21 00:40:23;;;;;;;49.73;28.33;;;;;;;-6.24;88.93;100113.95;1726239;82;21198;-65
2021/01/21 00:42:50;;;;;;;42.83;20.90;;;;;;;-6.20;88.91;100124.02;1712508;83;21653;-65
2021/01/21 00:45:18;;;;;;;43.37;23.80;;;;;;;-6.19;88.82;100115.18;1712783;83;21168;-64
2021/01/21 00:47:46;;;;;;;49.77;24.13;;;;;;;-6.20;88.78;100119.26;1725556;82;21141;-65
2021/01/21 00:50:14;;;;;;;49.60;21.77;;;;;;;-6.18;88.74;100112.08;1712650;83;21177;-69
2021/01/21 00:52:41;;;;;;;42.43;22.27;;;;;;;-6.17;88.77;100107.20;1712835;83;21154;-67
2021/01/21 00:55:12;;;;;;;43.67;19.63;;;;;;;-6.14;88.71;100111.36;1723596;82;21158;-66
2021/01/21 00:57:41;;;;;;;53.47;26.33;;;;;;;-6.11;88.54;100116.32;1733944;82;21192;-65
2021/01/21 01:00:10;;;;;;;50.07;26.50;;;;;;;-6.13;88.47;100111.69;1735603;82;21206;-66
2021/01/21 01:02:40;;;;;;;54.60;27.97;;;;;;;-6.09;88.50;100109.98;1736118;82;21057;-64
2021/01/21 01:05:10;;;;;;;39.60;23.73;;;;;;;-6.10;88.35;100107.52;1727837;82;21147;-66
2021/01/21 01:07:39;;;;;;;49.13;27.20;;;;;;;-6.12;88.39;100099.78;1738936;81;21155;-65
2021/01/21 01:10:08;;;;;;;47.33;28.03;;;;;;;-6.14;88.43;100095.66;1747312;81;21108;-65
2021/01/21 01:12:37;;;;;;;38.20;20.30;;;;;;;-6.10;88.36;100093.12;1739851;82;21195;-64
2021/01/21 01:15:08;;;;;;;47.50;24.47;;;;;;;-6.08;88.24;100095.93;1738374;81;21175;-65
2021/01/21 01:17:36;;;;;;;44.97;21.00;;;;;;;-6.05;88.18;100094.37;1753836;81;21129;-64
2021/01/21 01:20:06;;;;;;;53.47;25.90;;;;;;;-6.06;88.02;100099.25;1739959;81;21595;-66
2021/01/21 01:22:33;;;;;;;37.97;18.77;;;;;;;-6.06;88.01;100103.66;1738956;81;21147;-62
2021/01/21 01:25:01;;;;;;;47.53;25.40;;;;;;;-6.11;88.03;100101.45;1709923;83;21383;-65
2021/01/21 01:27:29;;;;;;;45.87;23.23;;;;;;;-6.08;88.04;100094.63;1743288;82;21070;-65
2021/01/21 01:29:58;;;;;;;43.13;19.17;;;;;;;-6.08;87.93;100092.00;1738260;81;22204;-64
2021/01/21 01:32:26;;;;;;;36.90;18.97;;;;;;;-6.10;87.97;100086.57;1738016;82;21061;-65
2021/01/21 01:34:55;;;;;;;42.97;18.07;;;;;;;-6.05;87.98;100088.30;1710035;83;21596;-66
2021/01/21 01:37:23;;;;;;;40.83;21.30;;;;;;;-6.03;87.83;100079.34;1713182;83;21180;-66
2021/01/21 01:40:01;;;;;;;40.33;24.67;;;;;;;-5.97;87.69;100084.05;1920587;74;24414;-66
2021/01/21 01:42:40;;;;;;;40.03;20.97;;;;;;;-5.99;87.63;100083.34;1813874;78;21011;-67
2021/01/21 01:45:11;;;;;;;50.63;24.50;;;;;;;-5.91;87.56;100084.00;1786607;78;21397;-67
2021/01/21 01:47:42;;;;;;;59.23;28.93;;;;;;;-5.85;87.39;100074.27;1723662;81;21019;-67
2021/01/21 01:50:12;;;;;;;64.57;28.30;;;;;;;-5.84;87.14;100066.25;1805397;77;21580;-66
2021/01/21 01:52:43;;;;;;;48.83;24.43;;;;;;;-5.84;87.02;100068.04;1754363;79;21109;-65
2021/01/21 01:55:21;;;;;;;47.60;25.03;;;;;;;-5.75;86.99;100066.74;1867310;75;23011;-66
2021/01/21 01:58:03;;;;;;;43.20;23.00;;;;;;;-5.76;86.75;100059.88;1833423;77;21013;-69
2021/01/21 02:00:42;;;;;;;34.17;17.40;;;;;;;-5.79;86.58;100061.91;1856004;77;21816;-68
2021/01/21 02:03:11;;;;;;;45.27;26.40;;;;;;;-5.74;86.65;100055.78;1839854;77;21543;-67
2021/01/21 02:05:40;;;;;;;49.07;27.33;;;;;;;-5.77;86.48;100052.14;1857202;77;20955;-66
2021/01/21 02:08:08;;;;;;;44.33;23.73;;;;;;;-5.75;86.52;100051.02;1860042;77;21037;-67
2021/01/21 02:10:36;;;;;;;29.97;18.03;;;;;;;-5.78;86.52;100047.86;1860116;77;20943;-67
2021/01/21 02:14:02;;;;;;;38.33;19.23;;;;;;;-5.76;86.56;100052.50;1859682;77;21202;-68
2021/01/21 02:16:44;;;;;;;26.10;16.47;;;;;;;-5.75;86.56;100051.02;1842424;77;21042;-67
2021/01/21 02:19:50;;;;;;;42.47;24.30;;;;;;;-5.74;86.57;100048.76;1826381;78;21022;-66
2021/01/21 02:22:59;;;;;;;39.27;21.03;;;;;;;-5.69;86.75;100054.06;1826384;78;21124;-67
2021/01/21 02:25:56;;;;;;;49.90;26.33;;;;;;;-5.73;86.82;100046.49;1841417;77;21106;-67
2021/01/21 02:29:09;;;;;;;44.00;22.77;;;;;;;-5.68;86.94;100043.45;1826179;78;22265;-64
2021/01/21 02:31:50;;;;;;;39.30;21.45;;;;;;;-5.60;86.80;100050.62;1832747;77;21133;-66
2021/01/21 02:34:39;;;;;;;43.70;24.30;;;;;;;-5.60;86.74;100046.20;1826262;77;21553;-67
2021/01/21 02:37:23;;;;;;;21.87;14.73;;;;;;;-5.61;86.82;100042.44;1826663;78;21531;-69
2021/01/21 02:40:08;;;;;;;43.80;23.50;;;;;;;-5.60;86.94;100035.73;1848915;76;22576;-67
2021/01/21 02:42:46;;;;;;;33.37;19.43;;;;;;;-5.64;87.09;100033.52;1809410;79;21587;-66
2021/01/21 02:45:15;;;;;;;38.60;20.93;;;;;;;-5.58;87.15;100032.98;1748268;82;21213;-67
2021/01/21 02:47:45;;;;;;;35.03;21.00;;;;;;;-5.59;87.12;100022.15;1739701;81;21140;-68
2021/01/21 02:50:13;;;;;;;29.57;16.33;;;;;;;-5.63;87.42;100022.09;1738296;82;21538;-67
2021/01/21 02:52:53;;;;;;;31.43;18.67;;;;;;;-5.58;87.45;100010.23;1738175;82;21613;-66
2021/01/21 02:55:47;;;;;;;26.53;16.03;;;;;;;-5.55;87.65;100014.34;1756982;81;20998;-67
2021/01/21 02:58:35;;;;;;;50.07;24.17;;;;;;;-5.51;87.71;100011.31;1739870;81;21060;-67
2021/01/21 03:01:05;;;;;;;40.13;21.63;;;;;;;-5.50;87.64;100010.35;1739471;82;21028;-67
2021/01/21 03:03:33;;;;;;;34.23;18.27;;;;;;;-5.51;87.63;100016.55;1753692;81;20998;-67
2021/01/21 03:06:03;;;;;;;33.83;18.37;;;;;;;-5.54;87.91;100010.29;1767744;81;21198;-67
2021/01/21 03:08:33;;;;;;;47.60;23.80;;;;;;;-5.51;87.96;100009.17;1770412;80;21147;-68
2021/01/21 03:11:13;;;;;;;45.87;26.37;;;;;;;-5.52;88.07;100009.68;1770360;81;21416;-69
2021/01/21 03:13:43;;;;;;;31.70;16.90;;;;;;;-5.51;88.13;100006.07;1770010;81;21009;-66
2021/01/21 03:16:12;;;;;;;41.63;20.77;;;;;;;-5.48;88.24;100007.13;1764046;80;21179;-67
2021/01/21 03:18:41;;;;;;;43.50;26.63;;;;;;;-5.43;88.12;99998.36;1710482;82;21171;-68
2021/01/21 03:21:09;;;;;;;34.07;20.77;;;;;;;-5.38;88.15;100010.56;1739840;82;21166;-68
2021/01/21 03:23:42;;;;;;;44.70;21.90;;;;;;;-5.35;88.04;100020.75;1739654;82;21292;-67
2021/01/21 03:26:12;;;;;;;37.83;22.15;;;;;;;-5.33;87.99;100024.55;1765787;81;21199;-68
2021/01/21 03:28:41;;;;;;;41.50;22.57;;;;;;;-5.33;88.12;100016.69;1728489;82;20981;-68
2021/01/21 03:31:10;;;;;;;39.17;19.83;;;;;;;-5.32;88.17;100006.05;1740581;81;21613;-68
2021/01/21 03:33:38;;;;;;;40.73;21.80;;;;;;;-5.36;88.41;100000.74;1750321;81;21168;-66
2021/01/21 03:36:07;;;;;;;37.00;18.77;;;;;;;-5.35;88.57;99995.85;1739153;81;22300;-70
2021/01/21 03:38:34;;;;;;;45.47;24.30;;;;;;;-5.33;88.71;100010.14;1754140;81;21178;-67
2021/01/21 03:41:10;;;;;;;39.60;21.90;;;;;;;-5.31;88.74;100006.39;1708409;82;21144;-67
2021/01/21 03:43:39;;;;;;;29.23;16.30;;;;;;;-5.24;88.74;100017.16;1757770;81;21192;-67
2021/01/21 03:46:15;;;;;;;35.87;17.47;;;;;;;-5.22;88.81;100006.50;1747900;81;21526;-69
2021/01/21 03:48:42;;;;;;;44.50;23.93;;;;;;;-5.16;88.76;100012.50;1820766;78;21254;-68
2021/01/21 03:51:29;;;;;;;33.50;20.97;;;;;;;-5.15;88.71;100004.50;1817983;78;21136;-67
2021/01/21 03:53:59;;;;;;;49.87;25.53;;;;;;;-5.10;88.68;100010.63;1809776;78;21176;-67
2021/01/21 03:56:28;;;;;;;38.50;18.83;;;;;;;-5.09;88.70;100000.49;1793588;78;21092;-68
2021/01/21 03:58:56;;;;;;;44.13;24.77;;;;;;;-5.05;88.67;100001.86;1819942;78;21562;-68
2021/01/21 04:01:25;;;;;;;37.33;21.73;;;;;;;-5.04;88.68;99999.10;1817675;78;21372;-68
2021/01/21 04:03:53;;;;;;;41.43;19.40;;;;;;;-5.03;88.68;99994.17;1819197;78;21599;-67
2021/01/21 04:06:22;;;;;;;33.87;19.03;;;;;;;-5.02;88.72;99995.01;1725319;81;21038;-66
2021/01/21 04:08:51;;;;;;;35.80;20.43;;;;;;;-5.01;88.82;99994.05;1753098;80;21026;-68
2021/01/21 04:11:33;;;;;;;36.53;22.17;;;;;;;-4.99;88.84;99991.61;1733953;82;21133;-69
2021/01/21 04:14:03;;;;;;;29.40;14.40;;;;;;;-4.88;88.76;99995.38;1736448;81;21211;-68
2021/01/21 04:16:31;;;;;;;38.27;20.13;;;;;;;-4.84;88.60;99995.91;1793377;78;21124;-68
2021/01/21 04:18:59;;;;;;;23.57;12.80;;;;;;;-4.78;88.47;99985.33;1820217;78;21649;-66
2021/01/21 04:21:27;;;;;;;28.00;15.80;;;;;;;-4.74;88.36;99990.62;1820222;78;20977;-68
2021/01/21 04:24:00;;;;;;;36.28;19.15;;;;;;;-4.76;88.30;99995.20;1819610;78;21167;-69
2021/01/21 04:26:37;;;;;;;28.20;18.87;;;;;;;-4.71;88.35;99988.55;1833320;76;26906;-66
2021/01/21 04:29:05;;;;;;;42.17;19.83;;;;;;;-4.75;88.34;99985.88;1787167;79;21161;-68
2021/01/21 04:31:33;;;;;;;25.97;17.40;;;;;;;-4.76;88.44;99985.53;1789722;79;20995;-68
2021/01/21 04:34:03;;;;;;;36.83;21.17;;;;;;;-4.74;88.50;99980.95;1807467;79;21042;-66
2021/01/21 04:36:31;;;;;;;33.37;20.73;;;;;;;-4.69;88.51;99991.02;1817190;78;20979;-66
2021/01/21 04:38:59;;;;;;;37.63;19.47;;;;;;;-4.67;88.47;99995.16;1783134;79;21022;-65
2021/01/21 04:41:29;;;;;;;32.80;19.63;;;;;;;-4.63;88.43;100000.94;1800547;79;21607;-66
2021/01/21 04:43:59;;;;;;;44.23;24.73;;;;;;;-4.60;88.41;99996.21;1815410;79;22277;-66
2021/01/21 04:46:42;;;;;;;39.80;21.57;;;;;;;-4.55;88.41;99992.67;1889072;76;24920;-65
2021/01/21 04:49:10;;;;;;;38.87;20.87;;;;;;;-4.61;88.47;99988.02;1856750;77;21591;-65
2021/01/21 04:51:39;;;;;;;26.37;13.60;;;;;;;-4.57;88.47;99995.11;1815156;78;21164;-66
2021/01/21 04:54:09;;;;;;;36.73;21.10;;;;;;;-4.52;88.48;100003.37;1774901;79;21027;-67
2021/01/21 04:56:53;;;;;;;35.30;19.00;;;;;;;-4.46;88.41;99998.34;1880614;75;25455;-65
2021/01/21 04:59:37;;;;;;;24.90;15.33;;;;;;;-4.45;88.34;99991.30;1821791;78;21069;-65
2021/01/21 05:02:07;;;;;;;26.63;15.43;;;;;;;-4.47;88.29;99988.02;1827125;77;21197;-71
2021/01/21 05:04:36;;;;;;;34.53;19.00;;;;;;;-4.47;88.29;99984.91;1833494;77;20963;-66
2021/01/21 05:07:09;;;;;;;42.47;22.07;;;;;;;-4.47;88.34;99986.70;1842620;77;20986;-64
2021/01/21 05:09:37;;;;;;;43.90;25.00;;;;;;;-4.43;88.33;99983.64;1794386;78;21010;-64
2021/01/21 05:12:09;;;;;;;38.83;22.17;;;;;;;-4.46;88.31;99979.98;1826415;78;21007;-67
2021/01/21 05:14:48;;;;;;;34.00;18.13;;;;;;;-4.48;88.61;99983.73;1834113;77;21583;-69
2021/01/21 05:17:19;;;;;;;42.60;21.73;;;;;;;-4.49;88.68;99983.39;1852510;77;22335;-65
2021/01/21 05:19:51;;;;;;;38.97;22.27;;;;;;;-4.46;88.71;99993.09;1860150;77;21574;-66
2021/01/21 05:22:37;;;;;;;45.73;25.27;;;;;;;-4.43;88.68;99984.13;1846298;77;21574;-67
2021/01/21 05:25:24;;;;;;;41.93;23.50;;;;;;;-4.37;88.66;100001.09;1843779;77;21125;-67
2021/01/21 05:28:10;;;;;;;42.00;20.00;;;;;;;-4.29;88.59;100000.69;1832605;77;21194;-67
2021/01/21 05:30:40;;;;;;;43.37;22.87;;;;;;;-4.22;88.30;99997.80;1855745;77;21160;-67
2021/01/21 05:33:08;;;;;;;32.30;18.20;;;;;;;-4.20;88.08;99998.97;1827302;77;21157;-67
2021/01/21 05:35:44;;;;;;;37.30;22.13;;;;;;;-4.21;87.99;99999.94;1835771;77;21776;-65
2021/01/21 05:38:12;;;;;;;41.50;19.50;;;;;;;-4.23;88.04;100003.22;1768161;78;21129;-66
2021/01/21 05:40:59;;;;;;;41.53;22.63;;;;;;;-4.23;88.12;99998.80;1826444;78;21680;-67
2021/01/21 05:43:48;;;;;;;34.90;20.43;;;;;;;-4.21;88.08;99999.94;1826574;77;21590;-69
2021/01/21 05:46:18;;;;;;;26.02;15.58;;;;;;;-4.25;88.20;100009.09;1815447;78;21153;-65
2021/01/21 05:48:46;;;;;;;40.67;23.77;;;;;;;-4.19;88.29;100009.34;1822184;78;21019;-66
2021/01/21 05:51:14;;;;;;;44.77;25.70;;;;;;;-4.14;88.14;100011.03;1789382;80;21172;-67
2021/01/21 05:53:42;;;;;;;43.83;22.27;;;;;;;-4.15;88.04;100012.48;1788153;80;21633;-71
2021/01/21 05:56:11;;;;;;;49.30;23.87;;;;;;;-4.16;88.07;100008.20;1783044;80;21213;-66
2021/01/21 05:59:01;;;;;;;35.77;20.63;;;;;;;-4.10;88.16;100004.50;1846900;76;26098;-66
2021/01/21 06:01:30;;;;;;;51.50;25.17;;;;;;;-4.10;88.06;100008.93;1801238;79;21034;-67
2021/01/21 06:03:57;;;;;;;42.27;22.53;;;;;;;-4.11;88.02;100012.04;1737121;80;21544;-67
2021/01/21 06:06:26;;;;;;;32.87;19.40;;;;;;;-4.09;88.03;100011.42;1784954;79;21121;-65
2021/01/21 06:08:56;;;;;;;41.83;25.70;;;;;;;-4.01;88.03;100014.12;1784951;80;20979;-66
2021/01/21 06:11:23;;;;;;;38.00;21.60;;;;;;;-3.97;87.72;100015.47;1772602;79;21030;-65
2021/01/21 06:13:51;;;;;;;31.13;18.03;;;;;;;-3.93;87.61;100015.98;1810911;79;20979;-69
2021/01/21 06:16:18;;;;;;;46.87;24.20;;;;;;;-3.99;87.50;100011.36;1751657;80;21409;-66
2021/01/21 06:18:46;;;;;;;36.07;20.90;;;;;;;-3.98;87.57;100017.75;1785118;80;21627;-64
2021/01/21 06:21:25;;;;;;;43.67;16.00;;;;;;;-3.94;87.59;100018.30;1745595;79;20983;-66
2021/01/21 06:24:11;;;;;;;45.40;23.00;;;;;;;-3.95;87.52;100012.70;1815213;79;21010;-65
2021/01/21 06:26:50;;;;;;;41.07;22.20;;;;;;;-3.97;87.69;100010.70;1816907;79;21086;-67
2021/01/21 06:29:22;;;;;;;39.93;23.60;;;;;;;-3.94;87.70;100009.11;1817887;79;21365;-66
2021/01/21 06:31:55;;;;;;;40.50;21.77;;;;;;;-3.89;87.66;100017.85;1765901;79;21113;-67
2021/01/21 06:34:26;;;;;;;40.03;18.80;;;;;;;-3.87;87.64;100017.20;1784603;80;21169;-66
2021/01/21 06:37:13;;;;;;;45.83;25.20;;;;;;;-3.85;87.58;100008.20;1754246;80;21113;-66
2021/01/21 06:39:55;;;;;;;46.27;24.73;;;;;;;-3.80;87.54;100006.44;1768092;79;21074;-65
2021/01/21 06:42:32;;;;;;;47.03;27.67;;;;;;;-3.73;87.42;100000.91;1815212;79;21187;-67
2021/01/21 06:45:00;;;;;;;33.43;17.00;;;;;;;-3.66;87.29;99992.28;1790760;79;21016;-67
2021/01/21 06:47:30;;;;;;;43.17;26.13;;;;;;;-3.69;87.01;100000.45;1753856;81;21114;-66
2021/01/21 06:50:00;;;;;;;37.77;18.77;;;;;;;-3.66;87.17;99990.97;1753787;81;21068;-67
2021/01/21 06:52:35;;;;;;;44.90;24.17;;;;;;;-3.52;87.08;99988.28;1769982;80;21145;-66
2021/01/21 06:55:04;;;;;;;48.27;26.90;;;;;;;-3.49;86.85;99993.22;1784847;80;21198;-68
2021/01/21 06:57:40;;;;;;;45.37;24.67;;;;;;;-3.40;86.71;99994.11;1754545;80;21193;-66
2021/01/21 07:00:32;;;;;;;46.40;24.37;;;;;;;-3.29;86.62;99995.19;1770332;80;21685;-66
2021/01/21 07:03:07;;;;;;;43.80;27.13;;;;;;;-3.21;86.05;100000.00;1878654;76;26800;-67
2021/01/21 07:05:35;;;;;;;40.10;21.67;;;;;;;-3.30;85.87;100003.56;1828234;77;21205;-65
2021/01/21 07:08:04;;;;;;;47.93;26.47;;;;;;;-3.28;86.05;99996.84;1826407;78;21019;-65
2021/01/21 07:10:46;;;;;;;38.47;21.63;;;;;;;-3.27;85.97;99996.70;1838062;77;21054;-66
2021/01/21 07:13:21;;;;;;;47.53;26.80;;;;;;;-3.25;85.97;99988.63;1855367;77;21168;-69
2021/01/21 07:16:04;;;;;;;50.63;23.43;;;;;;;-3.25;85.94;99996.52;1826626;77;21634;-68
2021/01/21 07:18:34;;;;;;;48.23;25.90;;;;;;;-3.25;85.90;99990.78;1830687;77;21038;-67
2021/01/21 07:21:11;;;;;;;46.60;27.47;;;;;;;-3.16;86.06;99985.08;1840730;78;22377;-66
2021/01/21 07:23:51;;;;;;;42.80;25.17;;;;;;;-3.09;85.80;99986.95;1837525;77;21026;-65
2021/01/21 07:26:37;;;;;;;50.03;25.93;;;;;;;-3.08;85.71;99983.83;1826388;78;20951;-66
2021/01/21 07:29:11;;;;;;;40.93;22.93;;;;;;;-3.02;85.69;99976.61;1826403;78;21508;-66
2021/01/21 07:32:01;;;;;;;36.58;21.40;;;;;;;-2.92;85.65;99984.39;1858406;77;21145;-67
2021/01/21 07:34:39;;;;;;;46.40;25.83;;;;;;;-2.92;85.33;99986.53;1840320;77;21223;-67
2021/01/21 07:37:30;;;;;;;35.53;19.50;;;;;;;-2.85;85.38;99974.91;1826268;78;21138;-66
2021/01/21 07:40:04;;;;;;;47.43;28.10;;;;;;;-2.82;85.18;99972.78;1826525;77;20994;-65
2021/01/21 07:42:40;;;;;;;45.77;24.63;;;;;;;-2.83;85.15;99982.17;1826292;78;21181;-66
2021/01/21 07:45:19;;;;;;;38.37;23.50;;;;;;;-2.83;85.27;99974.27;1816710;78;21174;-66
2021/01/21 07:47:48;;;;;;;37.90;21.87;;;;;;;-2.77;85.39;99972.30;1789642;80;21375;-65
2021/01/21 07:50:23;;;;;;;41.67;23.53;;;;;;;-2.76;85.37;99962.12;1822302;78;21151;-67
2021/01/21 07:52:54;;;;;;;49.50;28.27;;;;;;;-2.74;85.41;99966.75;1809004;78;21643;-67
2021/01/21 07:55:37;;;;;;;45.33;29.67;;;;;;;-2.74;85.48;99960.99;1793077;78;20983;-67
2021/01/21 07:58:21;;;;;;;50.78;26.93;;;;;;;-2.68;85.38;99957.70;1792238;80;21184;-67
2021/01/21 08:00:54;;;;;;;34.17;20.80;;;;;;;-2.60;85.36;99953.47;1774904;80;21847;-68
2021/01/21 08:03:40;;;;;;;50.67;26.23;;;;;;;-2.52;85.15;99956.95;1803667;78;21003;-66
2021/01/21 08:06:18;;;;;;;44.43;24.13;;;;;;;-2.50;84.94;99951.05;1764974;79;21063;-67
2021/01/21 08:08:49;;;;;;;43.53;25.73;;;;;;;-2.52;84.90;99953.49;1763699;81;21015;-67
2021/01/21 08:11:20;;;;;;;46.23;25.67;;;;;;;-2.49;85.05;99948.72;1794070;80;21113;-68
2021/01/21 08:13:47;;;;;;;53.60;30.37;;;;;;;-2.42;84.99;99956.81;1793711;80;21196;-68
2021/01/21 08:16:18;;;;;;;30.70;18.73;;;;;;;-2.35;85.00;99942.04;1824559;78;21122;-69
2021/01/21 08:18:46;;;;;;;45.00;24.70;;;;;;;-2.24;84.65;99946.98;1827784;78;21106;-67
2021/01/21 08:24:09;;;;;;;49.77;27.63;;;;;;;-2.08;84.16;99958.05;1867681;76;27217;-70
2021/01/21 08:26:37;;;;;;;47.00;24.00;;;;;;;-2.04;84.17;99960.69;1854516;77;21098;-67
2021/01/21 08:29:13;;;;;;;49.37;27.90;;;;;;;-2.01;83.66;99962.50;1781860;80;21206;-66
2021/01/21 08:31:47;;;;;;;41.57;22.93;;;;;;;-2.01;83.68;99960.35;1854393;77;21037;-66
2021/01/21 08:34:22;;;;;;;46.33;25.07;;;;;;;-1.99;83.54;99963.66;1781036;80;21045;-65
2021/01/21 08:36:49;;;;;;;43.00;23.30;;;;;;;-1.96;83.51;99949.66;1854223;77;21591;-66
2021/01/21 08:39:17;;;;;;;53.73;29.20;;;;;;;-1.89;83.58;99949.36;1852958;77;20999;-67
2021/01/21 08:41:44;;;;;;;43.63;26.67;;;;;;;-1.80;83.47;99955.45;1804303;77;24302;-66
2021/01/21 08:44:18;;;;;;;41.87;25.43;;;;;;;-1.74;83.08;99960.08;1776151;80;20991;-69
2021/01/21 08:46:59;;;;;;;44.10;25.83;;;;;;;-1.68;83.15;99960.74;1769185;81;20986;-67
2021/01/21 08:49:30;;;;;;;43.87;26.57;;;;;;;-1.66;82.71;99957.43;1769259;81;21080;-69
2021/01/21 08:52:10;;;;;;;46.07;25.17;;;;;;;-1.58;82.72;99964.01;1735256;82;21181;-67
2021/01/21 08:54:52;;;;;;;47.03;28.63;;;;;;;-1.52;82.51;99962.04;1756574;81;21197;-66
2021/01/21 08:57:22;;;;;;;42.87;25.57;;;;;;;-1.43;82.42;99958.89;1732056;81;21184;-68
2021/01/21 08:59:49;;;;;;;37.87;21.87;;;;;;;-1.37;82.03;99949.83;1738260;81;21124;-66
2021/01/21 09:02:42;;;;;;;43.07;28.27;;;;;;;-1.35;81.95;99947.86;1742892;81;21240;-67
2021/01/21 09:05:12;;;;;;;37.13;23.53;;;;;;;-1.35;81.71;99943.91;1761686;81;22194;-67
2021/01/21 09:07:40;;;;;;;47.17;24.07;;;;;;;-1.29;81.69;99939.75;1761020;81;21353;-67
2021/01/21 09:10:12;;;;;;;46.93;24.33;;;;;;;-1.20;81.55;99941.91;1761361;81;21148;-67
2021/01/21 09:12:40;;;;;;;45.43;26.20;;;;;;;-1.26;81.20;99941.25;1761776;81;21086;-69
2021/01/21 09:15:12;;;;;;;49.07;27.90;;;;;;;-1.26;81.40;99951.80;1734433;82;21635;-67
2021/01/21 09:17:41;;;;;;;38.60;21.50;;;;;;;-1.19;81.45;99943.03;1735511;82;21116;-65
2021/01/21 09:20:22;;;;;;;47.90;27.47;;;;;;;-1.13;81.01;99945.00;1705702;83;21634;-67
2021/01/21 09:22:51;;;;;;;37.80;22.03;;;;;;;-1.08;81.10;99949.78;1755704;81;21578;-68
2021/01/21 09:25:26;;;;;;;48.93;27.07;;;;;;;-1.06;80.80;99948.63;1735390;82;21069;-66
2021/01/21 09:27:55;;;;;;;38.70;23.80;;;;;;;-1.05;80.80;99945.47;1754681;81;21026;-65
2021/01/21 09:30:26;;;;;;;43.70;27.10;;;;;;;-0.95;80.95;99930.27;1702060;84;21867;-67
2021/01/21 09:32:55;;;;;;;43.87;26.93;;;;;;;-0.85;80.82;99936.67;1735539;82;22094;-66
2021/01/21 09:35:23;;;;;;;42.80;24.67;;;;;;;-0.82;80.26;99931.89;1753246;81;21172;-66
2021/01/21 09:37:54;;;;;;;42.53;26.57;;;;;;;-0.76;80.42;99931.68;1703921;84;21137;-68
2021/01/21 09:40:24;;;;;;;42.33;25.13;;;;;;;-0.70;80.17;99930.52;1724813;82;21132;-67
2021/01/21 09:42:53;;;;;;;45.93;27.27;;;;;;;-0.63;79.94;99931.98;1753234;81;21583;-67
2021/01/21 09:45:20;;;;;;;46.40;24.00;;;;;;;-0.57;79.87;99913.61;1734729;82;21266;-67
2021/01/21 09:47:52;;;;;;;52.43;27.20;;;;;;;-0.50;79.52;99929.11;1732220;82;21018;-68
2021/01/21 09:50:21;;;;;;;47.13;26.77;;;;;;;-0.45;79.21;99937.34;1715102;82;21173;-66
2021/01/21 09:52:49;;;;;;;45.87;26.23;;;;;;;-0.45;79.07;99937.34;1734696;82;21010;-67
2021/01/21 09:55:16;;;;;;;56.27;28.17;;;;;;;-0.37;79.09;99923.74;1734759;82;21123;-65
2021/01/21 09:57:45;;;;;;;46.20;27.30;;;;;;;-0.28;79.10;99920.88;1723397;82;21466;-67
2021/01/21 10:00:14;;;;;;;43.57;27.37;;;;;;;-0.20;78.76;99921.34;1706029;82;21142;-67
2021/01/21 10:02:41;;;;;;;35.63;24.13;;;;;;;-0.14;78.59;99925.41;1720407;81;21180;-67
2021/01/21 10:05:13;;;;;;;40.87;23.63;;;;;;;-0.06;78.29;99919.27;1696195;83;21515;-68
2021/01/21 10:07:41;;;;;;;46.03;28.00;;;;;;;-0.03;78.00;99917.09;1723466;81;21160;-66
2021/01/21 10:10:10;;;;;;;39.03;23.20;;;;;;;-0.03;77.80;99913.12;1695147;83;23676;-71
2021/01/21 10:12:38;;;;;;;40.47;25.17;;;;;;;-0.02;77.64;99917.91;1704837;84;21074;-67
2021/01/21 10:15:07;;;;;;;43.43;24.40;;;;;;;-0.03;77.77;99910.48;1747111;81;21610;-66
2021/01/21 10:17:35;;;;;;;51.97;28.80;;;;;;;0.00;77.56;99915.41;1723259;82;21160;-66
2021/01/21 10:20:07;;;;;;;46.13;28.30;;;;;;;0.09;77.61;99906.11;1733650;81;21133;-70
2021/01/21 10:22:35;;;;;;;44.23;24.60;;;;;;;0.18;77.49;99893.97;1719578;83;22302;-65
2021/01/21 10:25:03;;;;;;;50.43;26.90;;;;;;;0.25;77.20;99891.41;1710589;83;21187;-66
2021/01/21 10:27:31;;;;;;;37.60;25.07;;;;;;;0.28;77.00;99885.28;1703956;83;21151;-67
2021/01/21 10:29:58;;;;;;;48.67;29.10;;;;;;;0.25;76.88;99882.98;1704417;83;21145;-67
2021/01/21 10:32:28;;;;;;;34.37;17.90;;;;;;;0.32;76.91;99879.13;1745536;81;21626;-68
2021/01/21 10:34:56;;;;;;;48.03;26.70;;;;;;;0.37;76.47;99888.67;1722285;82;21180;-67
2021/01/21 10:37:24;;;;;;;46.33;27.27;;;;;;;0.33;76.65;99879.45;1747125;81;21204;-71
2021/01/21 10:39:53;;;;;;;47.93;26.27;;;;;;;0.33;76.80;99871.03;1760507;81;21182;-67
2021/01/21 10:42:21;;;;;;;44.77;26.67;;;;;;;0.36;76.77;99871.98;1760903;81;21141;-71
2021/01/21 10:44:51;;;;;;;39.67;22.30;;;;;;;0.43;76.81;99882.67;1754391;81;21160;-68
2021/01/21 10:47:20;;;;;;;47.47;29.63;;;;;;;0.57;76.66;99877.08;1731400;81;21808;-72
2021/01/21 10:49:48;;;;;;;43.70;24.07;;;;;;;0.62;76.26;99870.75;1732656;81;21192;-68
2021/01/21 10:52:15;;;;;;;44.30;25.80;;;;;;;0.64;75.97;99872.69;1731313;81;21690;-64
2021/01/21 10:54:43;;;;;;;43.07;25.07;;;;;;;0.67;76.13;99865.73;1758426;81;21002;-66
2021/01/21 10:57:10;;;;;;;44.87;24.80;;;;;;;0.75;76.00;99868.28;1762136;81;21100;-65
2021/01/21 10:59:38;;;;;;;47.10;24.43;;;;;;;0.81;75.68;99867.06;1705647;83;21164;-61
2021/01/21 11:02:06;;;;;;;45.53;27.77;;;;;;;0.85;75.58;99866.19;1729356;82;21185;-63
2021/01/21 11:04:34;;;;;;;44.27;23.53;;;;;;;0.84;75.37;99868.51;1708489;82;21044;-62
2021/01/21 11:07:01;;;;;;;45.20;27.50;;;;;;;0.82;75.18;99855.44;1734828;81;21645;-65
2021/01/21 11:12:11;;;;;;;29.13;15.07;;;;;;;0.92;75.54;99853.84;1825683;77;22676;-65
2021/01/21 11:14:39;;;;;;;39.47;23.40;;;;;;;0.93;75.14;99876.67;1811207;79;21555;-68
2021/01/21 11:17:07;;;;;;;41.80;24.83;;;;;;;0.98;75.25;99857.59;1787556;79;21279;-66
2021/01/21 11:19:35;;;;;;;42.37;25.10;;;;;;;1.03;75.04;99856.03;1785635;79;21678;-64
2021/01/21 11:22:03;;;;;;;38.07;21.70;;;;;;;1.06;74.84;99846.38;1793022;78;20986;-65
2021/01/21 11:24:31;;;;;;;38.67;22.97;;;;;;;1.08;74.73;99843.56;1806400;78;21031;-63
2021/01/21 11:27:00;;;;;;;42.53;25.67;;;;;;;1.15;75.05;99840.50;1785554;80;21019;-65
2021/01/21 11:29:27;;;;;;;50.00;27.63;;;;;;;1.21;74.69;99837.91;1785480;80;21036;-70
2021/01/21 11:31:55;;;;;;;41.93;24.57;;;;;;;1.30;75.18;99844.74;1801052;79;21011;-69
2021/01/21 11:34:24;;;;;;;44.23;26.77;;;;;;;1.34;74.20;99833.30;1803422;78;21079;-67
2021/01/21 11:36:52;;;;;;;42.27;23.80;;;;;;;1.37;74.19;99836.88;1790695;80;21567;-62
2021/01/21 11:39:21;;;;;;;42.27;24.80;;;;;;;1.42;73.97;99834.99;1791029;80;21580;-64
2021/01/21 11:41:49;;;;;;;41.67;25.43;;;;;;;1.41;74.20;99843.45;1801705;79;22291;-64
2021/01/21 11:44:16;;;;;;;38.00;23.27;;;;;;;1.49;74.05;99847.80;1813184;79;21122;-65